Time;durP1;ratioP1;P1;durP2;ratioP2;P2;SDS_P1;SDS_P2;PMS_P1;PMS_P2;Temp;Humidity;BMP_temperature;BMP_pressure;BME280_temperature;BME280_humidity;BME280_pressure;Samples;Min_cycle;Max_cycle;Signal;HPM_P1;HPM_P2
2021/08/17 00:00:38;;;;;;;;;36.67;32.00;;;;;;;;5165059;27;45339;-81
2021/08/17 00:03:04;;;;;;;;;36.67;33.00;;;;;;;;5165106;27;45304;-81
2021/08/17 00:05:29;;;;;;;;;35.33;30.67;;;;;;;;5165121;27;45303;-79
2021/08/17 00:07:55;;;;;;;;;35.67;32.00;;;;;;;;5165070;27;45542;-80
2021/08/17 00:10:21;;;;;;;;;32.33;27.67;;;;;;;;5165012;27;46085;-79
2021/08/17 00:12:46;;;;;;;;;38.33;33.00;;;;;;;;5165041;27;45301;-79
2021/08/17 00:15:12;;;;;;;;;38.67;33.67;;;;;;;;5165034;27;45311;-80
2021/08/17 00:17:37;;;;;;;;;42.00;34.33;;;;;;;;5164827;27;45287;-79
2021/08/17 00:20:03;;;;;;;;;36.67;32.00;;;;;;;;5164407;27;46119;-80
2021/08/17 00:22:28;;;;;;;;;37.00;31.00;;;;;;;;5164707;27;45209;-81
2021/08/17 00:24:54;;;;;;;;;40.00;34.33;;;;;;;;5165047;27;45195;-81
2021/08/17 00:27:20;;;;;;;;;37.00;32.33;;;;;;;;5164699;27;45435;-80
2021/08/17 00:29:47;;;;;;;;;36.00;32.00;;;;;;;;5145527;27;46438;-80
2021/08/17 00:32:12;;;;;;;;;39.33;33.67;;;;;;;;5164776;27;45270;-80
2021/08/17 00:34:37;;;;;;;;;34.67;30.67;;;;;;;;5163150;27;45282;-81
2021/08/17 00:37:03;;;;;;;;;39.00;33.00;;;;;;;;5164504;27;45522;-79
2021/08/17 00:39:29;;;;;;;;;30.00;28.00;;;;;;;;5164530;27;46452;-79
2021/08/17 00:41:55;;;;;;;;;34.00;31.33;;;;;;;;5164707;27;45593;-80
2021/08/17 00:44:27;;;;;;;;;38.00;32.33;;;;;;;;5164760;27;45561;-79
2021/08/17 00:46:53;;;;;;;;;34.33;31.67;;;;;;;;5164684;27;45485;-80
2021/08/17 00:49:19;;;;;;;;;31.00;28.67;;;;;;;;5164269;27;46189;-79
2021/08/17 00:51:44;;;;;;;;;36.33;31.33;;;;;;;;5164284;27;45375;-80
2021/08/17 00:54:10;;;;;;;;;38.00;32.00;;;;;;;;5164462;27;45298;-81
2021/08/17 00:56:36;;;;;;;;;33.00;30.00;;;;;;;;5164286;27;45507;-81
2021/08/17 00:59:02;;;;;;;;;30.67;29.00;;;;;;;;5164268;27;45294;-81
2021/08/17 01:01:27;;;;;;;;;37.67;29.33;;;;;;;;5164239;27;45323;-80
2021/08/17 01:03:52;;;;;;;;;33.33;30.33;;;;;;;;5164278;27;45292;-80
2021/08/17 01:06:18;;;;;;;;;36.00;32.33;;;;;;;;5164166;27;45386;-80
2021/08/17 01:08:43;;;;;;;;;33.00;31.00;;;;;;;;5164231;27;45298;-80
2021/08/17 01:11:08;;;;;;;;;31.67;29.33;;;;;;;;5164302;27;45308;-80
2021/08/17 01:13:34;;;;;;;;;26.33;24.67;;;;;;;;5164321;27;45393;-80
2021/08/17 01:15:59;;;;;;;;;29.33;29.00;;;;;;;;5164071;27;45383;-79
2021/08/17 01:18:25;;;;;;;;;37.33;32.33;;;;;;;;5164067;27;45367;-81
2021/08/17 01:20:53;;;;;;;;;33.67;30.00;;;;;;;;5163848;27;45379;-81
2021/08/17 01:23:19;;;;;;;;;32.67;30.00;;;;;;;;5163883;27;45254;-81
2021/08/17 01:25:44;;;;;;;;;27.00;25.33;;;;;;;;5163820;27;45476;-80
2021/08/17 01:28:09;;;;;;;;;35.33;32.00;;;;;;;;5163631;27;45995;-81
2021/08/17 01:30:35;;;;;;;;;34.33;31.67;;;;;;;;5163841;27;45306;-79
2021/08/17 01:33:00;;;;;;;;;29.67;29.00;;;;;;;;5164081;27;45412;-80
2021/08/17 01:35:26;;;;;;;;;35.00;32.67;;;;;;;;5163443;27;45415;-79
2021/08/17 01:37:52;;;;;;;;;26.00;24.00;;;;;;;;5163716;27;45330;-80
2021/08/17 01:40:17;;;;;;;;;31.00;26.67;;;;;;;;5163507;27;45236;-80
2021/08/17 01:42:48;;;;;;;;;32.67;29.00;;;;;;;;5163814;27;45396;-79
2021/08/17 01:45:13;;;;;;;;;35.00;30.00;;;;;;;;5163034;27;45482;-81
2021/08/17 01:47:39;;;;;;;;;29.67;29.00;;;;;;;;5163402;27;45449;-81
2021/08/17 01:50:04;;;;;;;;;32.00;30.67;;;;;;;;5163425;27;45596;-81
2021/08/17 01:52:30;;;;;;;;;33.00;29.33;;;;;;;;5163536;27;45289;-81
2021/08/17 01:54:55;;;;;;;;;34.33;29.33;;;;;;;;5163393;27;45447;-81
2021/08/17 01:57:21;;;;;;;;;34.33;29.33;;;;;;;;5163386;27;45590;-80
2021/08/17 01:59:46;;;;;;;;;29.67;26.67;;;;;;;;5163451;27;45254;-79
2021/08/17 02:02:12;;;;;;;;;32.33;26.67;;;;;;;;5163605;27;45315;-80
2021/08/17 02:04:37;;;;;;;;;29.33;28.33;;;;;;;;5163050;27;45254;-80
2021/08/17 02:07:03;;;;;;;;;28.67;25.67;;;;;;;;5163165;27;46005;-79
2021/08/17 02:09:28;;;;;;;;;30.00;27.67;;;;;;;;5163272;27;45355;-80
2021/08/17 02:11:54;;;;;;;;;31.67;29.33;;;;;;;;5163253;27;45398;-81
2021/08/17 02:14:19;;;;;;;;;33.33;27.67;;;;;;;;5163167;27;45263;-81
2021/08/17 02:16:44;;;;;;;;;24.67;23.67;;;;;;;;5162892;27;45284;-81
2021/08/17 02:19:09;;;;;;;;;27.00;26.67;;;;;;;;5162596;27;45389;-81
2021/08/17 02:21:35;;;;;;;;;30.00;28.67;;;;;;;;5162953;27;45313;-81
2021/08/17 02:24:00;;;;;;;;;29.33;28.33;;;;;;;;5162930;27;45506;-80
2021/08/17 02:26:25;;;;;;;;;27.33;26.33;;;;;;;;5162858;27;46091;-79
2021/08/17 02:28:51;;;;;;;;;29.33;27.33;;;;;;;;5162757;27;45328;-80
2021/08/17 02:31:16;;;;;;;;;29.67;28.33;;;;;;;;5162836;27;45424;-79
2021/08/17 02:33:41;;;;;;;;;29.67;28.67;;;;;;;;5124688;27;45312;-79
2021/08/17 02:36:07;;;;;;;;;28.67;26.33;;;;;;;;5120798;27;46357;-79
2021/08/17 02:38:32;;;;;;;;;32.00;27.33;;;;;;;;5121168;27;45265;-79
2021/08/17 02:40:57;;;;;;;;;31.00;27.33;;;;;;;;5120908;27;45235;-81
2021/08/17 02:43:26;;;;;;;;;27.33;26.00;;;;;;;;5120996;27;45559;-81
2021/08/17 02:45:52;;;;;;;;;35.33;29.33;;;;;;;;5120977;27;45389;-80
2021/08/17 02:48:18;;;;;;;;;33.67;30.00;;;;;;;;5120653;27;45410;-80
2021/08/17 02:50:43;;;;;;;;;29.67;27.33;;;;;;;;5120727;27;45569;-80
2021/08/17 02:53:08;;;;;;;;;32.67;28.00;;;;;;;;5120867;27;45433;-79
2021/08/17 02:55:33;;;;;;;;;35.67;31.33;;;;;;;;5120779;27;46009;-79
2021/08/17 02:58:05;;;;;;;;;35.33;31.00;;;;;;;;5119753;27;45287;-79
2021/08/17 03:00:30;;;;;;;;;34.67;31.67;;;;;;;;5120973;27;45353;-79
2021/08/17 03:02:56;;;;;;;;;30.67;27.00;;;;;;;;5120750;27;45322;-79
2021/08/17 03:05:21;;;;;;;;;29.00;29.00;;;;;;;;5120393;27;45326;-79
2021/08/17 03:07:50;;;;;;;;;26.67;26.33;;;;;;;;5120608;27;45346;-79
2021/08/17 03:10:16;;;;;;;;;28.67;28.33;;;;;;;;5120907;27;45327;-80
2021/08/17 03:12:41;;;;;;;;;33.67;30.67;;;;;;;;5120536;27;45412;-81
2021/08/17 03:15:06;;;;;;;;;32.33;29.00;;;;;;;;5120484;27;45333;-81
2021/08/17 03:17:33;;;;;;;;;30.67;29.67;;;;;;;;5120425;27;45424;-80
2021/08/17 03:19:58;;;;;;;;;29.67;28.00;;;;;;;;5128481;27;45376;-79
2021/08/17 03:22:24;;;;;;;;;28.67;28.00;;;;;;;;5122366;27;46402;-79
2021/08/17 03:24:49;;;;;;;;;30.67;27.00;;;;;;;;5141168;27;45440;-79
2021/08/17 03:27:14;;;;;;;;;28.00;26.00;;;;;;;;5141317;27;45400;-79
2021/08/17 03:29:40;;;;;;;;;28.33;27.33;;;;;;;;5144263;27;45344;-79
2021/08/17 03:32:05;;;;;;;;;27.00;26.33;;;;;;;;5162084;27;45410;-80
2021/08/17 03:34:30;;;;;;;;;24.00;22.67;;;;;;;;5143004;27;48060;-79
2021/08/17 03:36:56;;;;;;;;;25.00;25.00;;;;;;;;5161840;27;45273;-80
2021/08/17 03:39:21;;;;;;;;;24.33;21.67;;;;;;;;5143061;27;45383;-80
2021/08/17 03:41:46;;;;;;;;;31.00;26.33;;;;;;;;5161813;27;45354;-80
2021/08/17 03:44:12;;;;;;;;;24.67;23.33;;;;;;;;5161863;27;45982;-80
2021/08/17 03:46:37;;;;;;;;;24.33;21.00;;;;;;;;5161863;27;45346;-80
2021/08/17 03:49:02;;;;;;;;;27.33;26.00;;;;;;;;5161989;27;45377;-79
2021/08/17 03:51:28;;;;;;;;;30.67;29.33;;;;;;;;5161621;27;45420;-79
2021/08/17 03:53:53;;;;;;;;;32.00;26.00;;;;;;;;5161763;27;45414;-79
2021/08/17 03:56:18;;;;;;;;;28.00;26.67;;;;;;;;5161802;27;45206;-79
2021/08/17 03:58:43;;;;;;;;;23.00;21.67;;;;;;;;5161994;27;45207;-79
2021/08/17 04:01:09;;;;;;;;;32.00;30.00;;;;;;;;5161660;27;45550;-79
2021/08/17 04:03:34;;;;;;;;;25.00;25.00;;;;;;;;5142481;27;47661;-80
2021/08/17 04:05:59;;;;;;;;;27.00;25.00;;;;;;;;5161573;27;45273;-80
2021/08/17 04:08:25;;;;;;;;;27.67;26.67;;;;;;;;5162067;27;45306;-80
2021/08/17 04:10:51;;;;;;;;;28.67;26.00;;;;;;;;5165093;27;45368;-80
2021/08/17 04:13:16;;;;;;;;;27.33;25.00;;;;;;;;5164998;27;46034;-80
2021/08/17 04:15:42;;;;;;;;;29.67;28.33;;;;;;;;5146078;27;45289;-79
2021/08/17 04:18:07;;;;;;;;;28.33;26.00;;;;;;;;5165161;27;45222;-79
2021/08/17 04:20:33;;;;;;;;;30.00;25.67;;;;;;;;5164607;27;45271;-79
2021/08/17 04:22:59;;;;;;;;;27.67;24.00;;;;;;;;5164977;27;45435;-79
2021/08/17 04:25:24;;;;;;;;;21.67;20.33;;;;;;;;5164937;27;45315;-79
2021/08/17 04:27:50;;;;;;;;;18.67;17.33;;;;;;;;5165184;27;45577;-79
2021/08/17 04:30:15;;;;;;;;;23.33;21.67;;;;;;;;5145676;27;45553;-79
2021/08/17 04:32:40;;;;;;;;;29.33;24.67;;;;;;;;5164665;27;45328;-80
2021/08/17 04:35:06;;;;;;;;;29.00;28.00;;;;;;;;5145623;27;45287;-81
2021/08/17 04:37:31;;;;;;;;;30.33;27.33;;;;;;;;5164641;27;45321;-80
2021/08/17 04:39:57;;;;;;;;;31.00;26.67;;;;;;;;5164639;27;45301;-80
2021/08/17 04:42:22;;;;;;;;;30.33;29.00;;;;;;;;5164647;27;45220;-79
2021/08/17 04:44:48;;;;;;;;;27.00;21.33;;;;;;;;5164651;27;45247;-79
2021/08/17 04:47:13;;;;;;;;;28.33;26.67;;;;;;;;5164798;27;45851;-79
2021/08/17 04:49:38;;;;;;;;;29.00;25.67;;;;;;;;5164390;27;45330;-79
2021/08/17 04:52:04;;;;;;;;;28.67;27.33;;;;;;;;5164374;27;45264;-79
2021/08/17 04:54:29;;;;;;;;;22.33;22.00;;;;;;;;5164508;27;45330;-79
2021/08/17 04:56:54;;;;;;;;;27.67;25.67;;;;;;;;5164407;27;45489;-79
2021/08/17 04:59:20;;;;;;;;;25.33;23.67;;;;;;;;5164454;27;45426;-81
2021/08/17 05:01:45;;;;;;;;;28.33;26.00;;;;;;;;5164228;27;45388;-81
2021/08/17 05:04:10;;;;;;;;;26.00;23.67;;;;;;;;5164184;27;45294;-80
2021/08/17 05:06:36;;;;;;;;;32.00;30.00;;;;;;;;5164227;27;45976;-80
2021/08/17 05:09:02;;;;;;;;;30.33;28.00;;;;;;;;5164115;27;45315;-80
2021/08/17 05:11:27;;;;;;;;;34.00;26.67;;;;;;;;5164044;27;45327;-79
2021/08/17 05:13:52;;;;;;;;;25.67;25.00;;;;;;;;5164189;27;45284;-79
2021/08/17 05:16:18;;;;;;;;;28.00;28.00;;;;;;;;5145298;27;45344;-79
2021/08/17 05:18:45;;;;;;;;;27.00;25.33;;;;;;;;5163807;27;45298;-79
2021/08/17 05:21:10;;;;;;;;;29.33;28.67;;;;;;;;5162681;27;45292;-79
2021/08/17 05:23:35;;;;;;;;;24.33;22.67;;;;;;;;5163866;27;45329;-79
2021/08/17 05:26:01;;;;;;;;;30.67;27.33;;;;;;;;5164058;27;45608;-79
2021/08/17 05:28:26;;;;;;;;;31.00;27.33;;;;;;;;5163794;27;45326;-81
2021/08/17 05:30:51;;;;;;;;;28.33;27.33;;;;;;;;5161548;27;46802;-80
2021/08/17 05:33:17;;;;;;;;;28.33;26.67;;;;;;;;5134662;27;46261;-80
2021/08/17 05:35:43;;;;;;;;;33.00;30.00;;;;;;;;5124682;27;45453;-80
2021/08/17 05:38:09;;;;;;;;;31.00;29.00;;;;;;;;5121884;27;45631;-79
2021/08/17 05:40:34;;;;;;;;;22.67;22.67;;;;;;;;5122205;27;46099;-77
2021/08/17 05:42:59;;;;;;;;;24.33;24.00;;;;;;;;5129085;27;45266;-77
2021/08/17 05:45:25;;;;;;;;;28.00;26.67;;;;;;;;5128179;27;45192;-75
2021/08/17 05:47:50;;;;;;;;;24.67;23.67;;;;;;;;5107644;27;46740;-78
2021/08/17 05:50:16;;;;;;;;;26.67;25.67;;;;;;;;5127506;27;45360;-77
2021/08/17 05:52:42;;;;;;;;;27.00;27.00;;;;;;;;5126317;27;45368;-77
2021/08/17 05:55:08;;;;;;;;;24.33;23.33;;;;;;;;5126625;27;45261;-76
2021/08/17 05:57:35;;;;;;;;;26.67;25.00;;;;;;;;5126177;27;45353;-75
2021/08/17 06:00:00;;;;;;;;;31.00;27.00;;;;;;;;5123458;27;45216;-76
2021/08/17 06:02:26;;;;;;;;;27.67;27.00;;;;;;;;5125591;27;45316;-79
2021/08/17 06:04:51;;;;;;;;;29.33;27.33;;;;;;;;5124952;27;45408;-78
2021/08/17 06:07:17;;;;;;;;;31.67;28.33;;;;;;;;5130323;27;45503;-79
2021/08/17 06:09:43;;;;;;;;;28.00;26.33;;;;;;;;5131228;27;46184;-79
2021/08/17 06:12:08;;;;;;;;;27.67;24.67;;;;;;;;5132506;27;45761;-79
2021/08/17 06:14:33;;;;;;;;;29.00;26.33;;;;;;;;5132642;27;45389;-79
2021/08/17 06:16:59;;;;;;;;;27.00;26.67;;;;;;;;5138637;27;45326;-80
2021/08/17 06:19:24;;;;;;;;;23.33;21.33;;;;;;;;5113381;27;45666;-82
2021/08/17 06:21:49;;;;;;;;;25.00;21.67;;;;;;;;5166071;27;45208;-82
2021/08/17 06:24:16;;;;;;;;;29.67;26.67;;;;;;;;5146056;27;45297;-82
2021/08/17 06:26:41;;;;;;;;;25.33;25.33;;;;;;;;5164650;27;45735;-81
2021/08/17 06:29:06;;;;;;;;;28.33;27.67;;;;;;;;5146550;27;45393;-83
2021/08/17 06:31:31;;;;;;;;;26.00;24.67;;;;;;;;5148947;27;45466;-79
2021/08/17 06:34:00;;;;;;;;;26.33;22.67;;;;;;;;5173217;27;45806;-79
2021/08/17 06:36:25;;;;;;;;;28.33;27.33;;;;;;;;5170087;27;45360;-80
2021/08/17 06:38:51;;;;;;;;;24.67;23.67;;;;;;;;5145719;27;46940;-79
2021/08/17 06:41:16;;;;;;;;;24.00;21.00;;;;;;;;5163251;27;45258;-77
2021/08/17 06:43:42;;;;;;;;;27.33;27.00;;;;;;;;5166513;27;45269;-78
2021/08/17 06:46:08;;;;;;;;;28.33;25.67;;;;;;;;5167487;27;45381;-77
2021/08/17 06:48:33;;;;;;;;;22.67;22.00;;;;;;;;5163297;27;45306;-81
2021/08/17 06:50:58;;;;;;;;;26.33;24.67;;;;;;;;5162879;27;45252;-82
2021/08/17 06:53:24;;;;;;;;;25.33;23.33;;;;;;;;5162860;27;45225;-79
2021/08/17 06:55:49;;;;;;;;;28.67;26.33;;;;;;;;5162220;27;45214;-80
2021/08/17 06:58:15;;;;;;;;;30.67;27.00;;;;;;;;5161818;27;45215;-81
2021/08/17 07:00:41;;;;;;;;;26.67;25.00;;;;;;;;5161237;27;45482;-81
2021/08/17 07:03:07;;;;;;;;;28.00;25.00;;;;;;;;5152909;27;45651;-79
2021/08/17 07:05:33;;;;;;;;;25.00;25.00;;;;;;;;5161106;27;45379;-79
2021/08/17 07:07:59;;;;;;;;;23.67;22.00;;;;;;;;5155075;27;45447;-77
2021/08/17 07:10:24;;;;;;;;;26.00;25.00;;;;;;;;5146962;27;45336;-78
2021/08/17 07:12:50;;;;;;;;;26.00;25.00;;;;;;;;5162521;27;45239;-77
2021/08/17 07:15:15;;;;;;;;;31.67;29.00;;;;;;;;5163484;27;45424;-79
2021/08/17 07:17:40;;;;;;;;;23.67;22.33;;;;;;;;5162045;27;45334;-78
2021/08/17 07:20:06;;;;;;;;;24.33;21.00;;;;;;;;5161326;27;45172;-79
2021/08/17 07:22:31;;;;;;;;;27.00;26.00;;;;;;;;5161642;27;45928;-83
2021/08/17 07:24:56;;;;;;;;;23.33;21.00;;;;;;;;5162522;27;45436;-82
2021/08/17 07:27:22;;;;;;;;;23.33;20.67;;;;;;;;5161265;27;45985;-84
2021/08/17 07:29:47;;;;;;;;;28.00;25.33;;;;;;;;5161541;27;45325;-83
2021/08/17 07:32:12;;;;;;;;;23.00;19.00;;;;;;;;5143980;27;45333;-83
2021/08/17 07:34:38;;;;;;;;;24.00;24.00;;;;;;;;5151321;27;45335;-81
2021/08/17 07:37:03;;;;;;;;;22.00;21.33;;;;;;;;5149647;27;45341;-82
2021/08/17 07:39:29;;;;;;;;;22.00;22.00;;;;;;;;5129540;27;45365;-82
2021/08/17 07:41:55;;;;;;;;;20.67;19.33;;;;;;;;5130328;27;45355;-81
2021/08/17 07:44:20;;;;;;;;;22.00;22.00;;;;;;;;5152076;27;45583;-80
2021/08/17 07:46:46;;;;;;;;;25.33;24.33;;;;;;;;5158600;27;46034;-83
2021/08/17 07:49:11;;;;;;;;;21.33;18.67;;;;;;;;5138885;27;45318;-83
2021/08/17 07:51:36;;;;;;;;;15.33;15.33;;;;;;;;5153856;27;45466;-83
2021/08/17 07:54:02;;;;;;;;;21.33;20.33;;;;;;;;5128444;27;46236;-87
2021/08/17 07:56:27;;;;;;;;;24.00;20.67;;;;;;;;5150954;27;45324;-87
2021/08/17 07:58:53;;;;;;;;;25.33;24.33;;;;;;;;5146733;27;45308;-86
2021/08/17 08:01:18;;;;;;;;;20.00;18.67;;;;;;;;5147057;27;45410;-86
2021/08/17 08:03:43;;;;;;;;;21.67;19.67;;;;;;;;5146278;27;45808;-83
2021/08/17 08:06:09;;;;;;;;;23.67;19.67;;;;;;;;5164835;27;46164;-82
2021/08/17 08:08:35;;;;;;;;;21.67;18.00;;;;;;;;5164694;27;45281;-79
2021/08/17 08:11:00;;;;;;;;;23.67;23.33;;;;;;;;5164997;27;45376;-79
2021/08/17 08:13:25;;;;;;;;;19.00;17.00;;;;;;;;5165233;27;45170;-80
2021/08/17 08:15:51;;;;;;;;;21.33;20.67;;;;;;;;5161670;27;45732;-80
2021/08/17 08:18:16;;;;;;;;;20.33;20.33;;;;;;;;5161569;27;45559;-79
2021/08/17 08:20:42;;;;;;;;;20.33;17.33;;;;;;;;5144257;27;45762;-79
2021/08/17 08:23:08;;;;;;;;;17.67;17.67;;;;;;;;5162963;27;45643;-78
2021/08/17 08:25:34;;;;;;;;;16.67;16.67;;;;;;;;5163586;27;45569;-79
2021/08/17 08:27:59;;;;;;;;;20.33;18.67;;;;;;;;5162669;27;45158;-78
2021/08/17 08:30:25;;;;;;;;;15.67;14.67;;;;;;;;5163792;27;45258;-78
2021/08/17 08:32:50;;;;;;;;;16.33;16.00;;;;;;;;5164998;27;45447;-79
2021/08/17 08:35:15;;;;;;;;;24.00;20.67;;;;;;;;5163114;27;45936;-80
2021/08/17 08:37:41;;;;;;;;;18.33;16.67;;;;;;;;5163767;27;45670;-80
2021/08/17 08:40:07;;;;;;;;;17.00;15.67;;;;;;;;5164372;27;45354;-80
2021/08/17 08:42:33;;;;;;;;;14.00;12.00;;;;;;;;5154846;27;45421;-80
2021/08/17 08:44:58;;;;;;;;;16.00;15.00;;;;;;;;5138485;27;45693;-78
2021/08/17 08:47:23;;;;;;;;;17.33;15.67;;;;;;;;5163294;27;45418;-79
2021/08/17 08:49:50;;;;;;;;;17.67;14.00;;;;;;;;5164269;27;45380;-78
2021/08/17 08:52:16;;;;;;;;;15.33;13.67;;;;;;;;5164299;27;45711;-79
2021/08/17 08:54:42;;;;;;;;;15.00;13.33;;;;;;;;5162634;27;46266;-79
2021/08/17 08:57:07;;;;;;;;;16.33;15.67;;;;;;;;5163029;27;45434;-79
2021/08/17 08:59:32;;;;;;;;;13.33;13.33;;;;;;;;5164022;27;45639;-79
2021/08/17 09:02:08;;;;;;;;;31.33;29.33;;;;;;;;5164659;27;45277;-78
2021/08/17 09:04:33;;;;;;;;;14.00;14.00;;;;;;;;5164275;27;45714;-80
2021/08/17 09:06:59;;;;;;;;;15.67;13.67;;;;;;;;5164241;27;45377;-82
2021/08/17 09:09:24;;;;;;;;;53.00;42.67;;;;;;;;5164367;27;45424;-81
2021/08/17 09:11:51;;;;;;;;;14.00;13.67;;;;;;;;5164301;27;45423;-80
2021/08/17 09:14:19;;;;;;;;;15.00;14.33;;;;;;;;5164274;27;45331;-81
2021/08/17 09:16:46;;;;;;;;;17.33;15.00;;;;;;;;5164273;27;45448;-78
2021/08/17 09:19:40;;;;;;;;;18.00;15.33;;;;;;;;5163866;27;45304;-78
2021/08/17 09:22:16;;;;;;;;;18.67;17.00;;;;;;;;5141464;27;45778;-78
2021/08/17 09:24:43;;;;;;;;;47.00;37.67;;;;;;;;5164085;27;45621;-78
2021/08/17 09:27:12;;;;;;;;;17.00;16.33;;;;;;;;5164129;27;45348;-78
2021/08/17 09:29:39;;;;;;;;;31.33;29.67;;;;;;;;5164004;27;45337;-78
2021/08/17 09:32:14;;;;;;;;;16.67;15.33;;;;;;;;5164021;27;45323;-79
2021/08/17 09:34:40;;;;;;;;;22.67;22.00;;;;;;;;5163819;27;45483;-78
2021/08/17 09:37:12;;;;;;;;;13.33;13.33;;;;;;;;5163935;27;45238;-79
2021/08/17 09:39:40;;;;;;;;;15.67;15.67;;;;;;;;5163993;27;45322;-78
2021/08/17 09:42:10;;;;;;;;;15.33;14.33;;;;;;;;5163372;27;45443;-78
2021/08/17 09:44:36;;;;;;;;;41.33;32.33;;;;;;;;5163725;27;45430;-79
2021/08/17 09:47:01;;;;;;;;;15.33;15.00;;;;;;;;5163733;27;45323;-79
2021/08/17 09:49:29;;;;;;;;;19.33;17.33;;;;;;;;5163729;27;45322;-78
2021/08/17 09:51:55;;;;;;;;;17.67;16.33;;;;;;;;5163764;27;45345;-80
2021/08/17 09:54:22;;;;;;;;;17.33;16.00;;;;;;;;5163535;27;46128;-79
2021/08/17 09:56:57;;;;;;;;;18.67;16.00;;;;;;;;5163593;27;45215;-78
2021/08/17 09:59:24;;;;;;;;;14.67;14.67;;;;;;;;5163748;27;45257;-79
2021/08/17 10:01:50;;;;;;;;;15.33;13.67;;;;;;;;5163725;27;45220;-80
2021/08/17 10:04:17;;;;;;;;;15.33;15.00;;;;;;;;5163407;27;45197;-80
2021/08/17 10:06:43;;;;;;;;;17.33;17.33;;;;;;;;5162692;27;45571;-79
2021/08/17 10:09:09;;;;;;;;;13.33;13.33;;;;;;;;5163681;27;45301;-78
2021/08/17 10:11:35;;;;;;;;;17.00;15.00;;;;;;;;5163314;27;45326;-78
2021/08/17 10:14:01;;;;;;;;;13.00;13.00;;;;;;;;5162660;27;45366;-78
2021/08/17 10:16:26;;;;;;;;;13.33;11.00;;;;;;;;5163330;27;45504;-77
2021/08/17 10:18:51;;;;;;;;;11.67;11.67;;;;;;;;5163194;27;45302;-77
2021/08/17 10:21:18;;;;;;;;;12.00;12.00;;;;;;;;5162865;27;45226;-78
2021/08/17 10:23:44;;;;;;;;;11.00;11.00;;;;;;;;5162411;27;45392;-78
2021/08/17 10:26:25;;;;;;;;;11.67;11.33;;;;;;;;5162647;27;45519;-76
2021/08/17 10:28:51;;;;;;;;;13.00;11.33;;;;;;;;5144059;27;45408;-78
2021/08/17 10:31:18;;;;;;;;;17.00;15.67;;;;;;;;5162832;27;45276;-78
2021/08/17 10:33:50;;;;;;;;;12.33;12.33;;;;;;;;5162734;27;46182;-79
2021/08/17 10:36:30;;;;;;;;;12.33;12.33;;;;;;;;5162826;27;45444;-79
2021/08/17 10:38:56;;;;;;;;;13.67;13.67;;;;;;;;5163240;27;45509;-79
2021/08/17 10:41:31;;;;;;;;;15.00;13.33;;;;;;;;5162598;27;45258;-79
2021/08/17 10:43:57;;;;;;;;;13.33;11.33;;;;;;;;5162800;27;45995;-77
2021/08/17 10:46:43;;;;;;;;;13.67;12.67;;;;;;;;5162882;27;45321;-79
2021/08/17 10:49:28;;;;;;;;;13.67;12.67;;;;;;;;5162831;27;45332;-79
2021/08/17 10:52:01;;;;;;;;;15.67;14.67;;;;;;;;5161884;27;45367;-79
2021/08/17 10:54:27;;;;;;;;;12.33;12.00;;;;;;;;5155293;27;46624;-79
2021/08/17 10:56:52;;;;;;;;;10.67;10.67;;;;;;;;5150231;27;45450;-79
2021/08/17 10:59:37;;;;;;;;;14.67;14.00;;;;;;;;5149496;27;45541;-80
2021/08/17 11:02:03;;;;;;;;;14.33;14.33;;;;;;;;5154071;27;45564;-80
2021/08/17 11:04:43;;;;;;;;;15.00;13.00;;;;;;;;5149502;27;45392;-77
2021/08/17 11:07:27;;;;;;;;;14.67;12.67;;;;;;;;5149380;27;45336;-74
2021/08/17 11:09:53;;;;;;;;;12.67;12.00;;;;;;;;5149617;27;45253;-78
2021/08/17 11:12:19;;;;;;;;;31.00;27.33;;;;;;;;5149366;27;45225;-79
2021/08/17 11:14:45;;;;;;;;;22.33;21.33;;;;;;;;5151193;27;46217;-77
2021/08/17 11:17:11;;;;;;;;;10.67;10.67;;;;;;;;5149672;27;45331;-79
2021/08/17 11:19:38;;;;;;;;;10.33;9.67;;;;;;;;5151872;27;45297;-78
2021/08/17 11:22:05;;;;;;;;;14.33;14.33;;;;;;;;5154907;27;45550;-80
2021/08/17 11:24:31;;;;;;;;;26.00;24.67;;;;;;;;5156785;27;45433;-78
2021/08/17 11:26:58;;;;;;;;;24.33;22.00;;;;;;;;5165980;27;45142;-78
2021/08/17 11:29:27;;;;;;;;;22.33;21.67;;;;;;;;5165843;27;45482;-78
2021/08/17 11:31:53;;;;;;;;;12.67;11.67;;;;;;;;5165850;27;45451;-78
2021/08/17 11:34:18;;;;;;;;;40.67;35.00;;;;;;;;5165657;27;45366;-78
2021/08/17 11:36:59;;;;;;;;;11.67;11.67;;;;;;;;5165748;27;45390;-80
2021/08/17 11:39:27;;;;;;;;;13.00;13.00;;;;;;;;5163173;27;45327;-79
2021/08/17 11:41:52;;;;;;;;;21.00;20.33;;;;;;;;5157260;27;45519;-79
2021/08/17 11:44:18;;;;;;;;;41.67;34.67;;;;;;;;5163913;27;46132;-80
2021/08/17 11:46:44;;;;;;;;;54.33;40.33;;;;;;;;5163301;27;45396;-78
2021/08/17 11:49:18;;;;;;;;;49.67;41.33;;;;;;;;5176856;27;45439;-77
2021/08/17 11:51:43;;;;;;;;;144.75;126.50;;;;;;;;5165493;27;45298;-78
2021/08/17 11:54:12;;;;;;;;;28.00;26.00;;;;;;;;5164343;27;45316;-80
2021/08/17 11:56:37;;;;;;;;;13.67;13.67;;;;;;;;5164030;27;45290;-79
2021/08/17 11:59:03;;;;;;;;;13.00;13.00;;;;;;;;5164118;27;45895;-80
2021/08/17 12:01:29;;;;;;;;;14.67;12.67;;;;;;;;5164160;27;45437;-80
2021/08/17 12:04:04;;;;;;;;;11.00;10.67;;;;;;;;5164002;27;45214;-80
2021/08/17 12:06:29;;;;;;;;;9.33;9.33;;;;;;;;5165018;27;45218;-82
2021/08/17 12:09:15;;;;;;;;;9.67;9.67;;;;;;;;5165101;27;45228;-80
2021/08/17 12:11:55;;;;;;;;;14.67;12.00;;;;;;;;5145762;27;45492;-81
2021/08/17 12:14:23;;;;;;;;;14.00;14.00;;;;;;;;5164212;27;45370;-82
2021/08/17 12:16:53;;;;;;;;;11.00;10.33;;;;;;;;5163901;27;45559;-84
2021/08/17 12:19:18;;;;;;;;;15.33;12.00;;;;;;;;5164407;27;45469;-78
2021/08/17 12:21:44;;;;;;;;;16.33;16.00;;;;;;;;5168631;27;45676;-76
2021/08/17 12:24:09;;;;;;;;;16.00;15.00;;;;;;;;5170781;27;45438;-76
2021/08/17 12:26:35;;;;;;;;;12.67;11.00;;;;;;;;5168562;27;45343;-81
2021/08/17 12:29:11;;;;;;;;;14.67;13.33;;;;;;;;5166033;27;45335;-80
2021/08/17 12:31:38;;;;;;;;;11.00;11.00;;;;;;;;5166778;27;45362;-80
2021/08/17 12:34:07;;;;;;;;;12.33;12.33;;;;;;;;5166710;27;46036;-80
2021/08/17 12:36:32;;;;;;;;;13.33;12.33;;;;;;;;5163334;27;45339;-82
2021/08/17 12:39:05;;;;;;;;;13.33;12.33;;;;;;;;5165725;27;45348;-82
2021/08/17 12:41:34;;;;;;;;;12.67;11.67;;;;;;;;5154862;27;45344;-81
2021/08/17 12:44:00;;;;;;;;;8.67;8.33;;;;;;;;5143861;27;45582;-82
2021/08/17 12:46:25;;;;;;;;;11.00;11.00;;;;;;;;5164006;27;45458;-82
2021/08/17 12:48:51;;;;;;;;;9.67;9.67;;;;;;;;5162806;27;45730;-82
2021/08/17 12:51:25;;;;;;;;;14.00;13.33;;;;;;;;5145699;27;45431;-80
2021/08/17 12:53:51;;;;;;;;;9.67;9.67;;;;;;;;5147344;27;45956;-79
2021/08/17 12:56:16;;;;;;;;;13.67;12.67;;;;;;;;5146584;27;45404;-81
2021/08/17 12:58:45;;;;;;;;;6.33;5.67;;;;;;;;5145280;27;45302;-82
2021/08/17 13:01:10;;;;;;;;;11.67;9.00;;;;;;;;5160789;27;45312;-81
2021/08/17 13:03:36;;;;;;;;;12.00;10.33;;;;;;;;5164538;27;45711;-81
2021/08/17 13:06:01;;;;;;;;;9.67;9.67;;;;;;;;5163467;27;45288;-81
2021/08/17 13:08:26;;;;;;;;;13.00;11.00;;;;;;;;5164351;27;45459;-82
2021/08/17 13:10:52;;;;;;;;;10.67;9.00;;;;;;;;5166610;27;45370;-80
2021/08/17 13:13:17;;;;;;;;;11.67;10.67;;;;;;;;5167261;27;45303;-80
2021/08/17 13:15:43;;;;;;;;;20.33;19.67;;;;;;;;5165237;27;45391;-81
2021/08/17 13:18:08;;;;;;;;;29.33;28.00;;;;;;;;5165289;27;45464;-81
2021/08/17 13:20:33;;;;;;;;;12.00;12.00;;;;;;;;5164805;27;45451;-79
2021/08/17 13:22:59;;;;;;;;;9.00;8.00;;;;;;;;5164677;27;45378;-80
2021/08/17 13:25:24;;;;;;;;;28.33;23.67;;;;;;;;5165491;27;45288;-81
2021/08/17 13:27:49;;;;;;;;;11.67;10.00;;;;;;;;5151204;27;45371;-79
2021/08/17 13:30:15;;;;;;;;;8.67;8.00;;;;;;;;5167165;27;45280;-79
2021/08/17 13:32:41;;;;;;;;;11.33;10.00;;;;;;;;5152253;27;45642;-80
2021/08/17 13:35:06;;;;;;;;;15.00;15.00;;;;;;;;5139672;27;45380;-82
2021/08/17 13:37:32;;;;;;;;;11.00;10.67;;;;;;;;5160973;27;45376;-82
2021/08/17 13:39:57;;;;;;;;;9.00;8.33;;;;;;;;5162712;27;45324;-81
2021/08/17 13:42:23;;;;;;;;;8.33;8.00;;;;;;;;5162387;27;46006;-82
2021/08/17 13:44:49;;;;;;;;;7.67;7.67;;;;;;;;5164455;27;45219;-78
2021/08/17 13:47:14;;;;;;;;;8.33;7.33;;;;;;;;5162609;27;45264;-79
2021/08/17 13:49:39;;;;;;;;;8.67;8.67;;;;;;;;5164431;27;45186;-77
2021/08/17 13:52:05;;;;;;;;;10.00;8.00;;;;;;;;5153240;27;45297;-77
2021/08/17 13:54:30;;;;;;;;;7.67;7.67;;;;;;;;5162884;27;45280;-77
2021/08/17 13:56:56;;;;;;;;;8.00;7.00;;;;;;;;5163313;27;45216;-76
2021/08/17 13:59:23;;;;;;;;;8.50;7.00;;;;;;;;5162894;27;45358;-77
2021/08/17 14:01:48;;;;;;;;;7.33;7.33;;;;;;;;5163271;27;46034;-76
2021/08/17 14:04:14;;;;;;;;;7.67;7.00;;;;;;;;5163516;27;45365;-76
2021/08/17 14:06:42;;;;;;;;;7.67;7.67;;;;;;;;5164726;27;45326;-77
2021/08/17 14:09:07;;;;;;;;;5.67;5.67;;;;;;;;5162959;27;45323;-79
2021/08/17 14:11:33;;;;;;;;;7.67;6.00;;;;;;;;5163427;27;45287;-79
2021/08/17 14:13:59;;;;;;;;;7.33;7.33;;;;;;;;5163439;27;45483;-80